sensor_id;sensor_type;location;lat;lon;timestamp;P1;durP1;ratioP1;P2;durP2;ratioP2
29380;SDS011;16364;52.490;13.326;2023-05-07T00:00:05;13.93;;;11.97;;
29380;SDS011;16364;52.490;13.326;2023-05-07T00:02:34;15.40;;;11.87;;
29380;SDS011;16364;52.490;13.326;2023-05-07T00:05:00;13.97;;;11.97;;
29380;SDS011;16364;52.490;13.326;2023-05-07T00:07:25;15.83;;;11.77;;
29380;SDS011;16364;52.490;13.326;2023-05-07T00:09:50;14.67;;;11.30;;
29380;SDS011;16364;52.490;13.326;2023-05-07T00:12:15;13.47;;;11.03;;
29380;SDS011;16364;52.490;13.326;2023-05-07T00:14:41;13.40;;;12.07;;
29380;SDS011;16364;52.490;13.326;2023-05-07T00:17:06;13.47;;;10.50;;
29380;SDS011;16364;52.490;13.326;2023-05-07T00:19:31;13.83;;;10.40;;
29380;SDS011;16364;52.490;13.326;2023-05-07T00:21:57;12.67;;;11.37;;
29380;SDS011;16364;52.490;13.326;2023-05-07T00:24:23;11.37;;;10.17;;
29380;SDS011;16364;52.490;13.326;2023-05-07T00:26:48;12.53;;;11.00;;
29380;SDS011;16364;52.490;13.326;2023-05-07T00:29:13;11.90;;;10.70;;
29380;SDS011;16364;52.490;13.326;2023-05-07T00:31:39;12.07;;;9.93;;
29380;SDS011;16364;52.490;13.326;2023-05-07T00:34:04;12.10;;;10.20;;
29380;SDS011;16364;52.490;13.326;2023-05-07T00:36:29;13.83;;;9.83;;
29380;SDS011;16364;52.490;13.326;2023-05-07T00:38:56;10.70;;;9.30;;
29380;SDS011;16364;52.490;13.326;2023-05-07T00:41:21;11.90;;;10.43;;
29380;SDS011;16364;52.490;13.326;2023-05-07T00:43:47;10.03;;;9.10;;
29380;SDS011;16364;52.490;13.326;2023-05-07T00:46:13;10.93;;;9.73;;
29380;SDS011;16364;52.490;13.326;2023-05-07T00:48:38;10.87;;;9.80;;
29380;SDS011;16364;52.490;13.326;2023-05-07T00:51:03;9.90;;;8.90;;
29380;SDS011;16364;52.490;13.326;2023-05-07T00:53:28;12.43;;;9.53;;
29380;SDS011;16364;52.490;13.326;2023-05-07T00:55:55;11.40;;;9.03;;
29380;SDS011;16364;52.490;13.326;2023-05-07T00:58:21;11.40;;;8.53;;
29380;SDS011;16364;52.490;13.326;2023-05-07T01:00:46;10.77;;;8.70;;
29380;SDS011;16364;52.490;13.326;2023-05-07T01:03:11;12.03;;;8.53;;
29380;SDS011;16364;52.490;13.326;2023-05-07T01:05:37;10.60;;;9.50;;
29380;SDS011;16364;52.490;13.326;2023-05-07T01:08:02;14.20;;;10.97;;
29380;SDS011;16364;52.490;13.326;2023-05-07T01:10:28;12.03;;;9.87;;
29380;SDS011;16364;52.490;13.326;2023-05-07T01:12:55;10.40;;;8.93;;
29380;SDS011;16364;52.490;13.326;2023-05-07T01:15:21;10.60;;;9.23;;
29380;SDS011;16364;52.490;13.326;2023-05-07T01:17:46;10.40;;;9.37;;
29380;SDS011;16364;52.490;13.326;2023-05-07T01:20:12;14.00;;;12.10;;
29380;SDS011;16364;52.490;13.326;2023-05-07T01:22:37;12.33;;;10.50;;
29380;SDS011;16364;52.490;13.326;2023-05-07T01:25:03;10.93;;;9.97;;
29380;SDS011;16364;52.490;13.326;2023-05-07T01:27:28;10.33;;;9.30;;
29380;SDS011;16364;52.490;13.326;2023-05-07T01:29:54;11.80;;;10.20;;
29380;SDS011;16364;52.490;13.326;2023-05-07T01:32:21;10.70;;;9.00;;
29380;SDS011;16364;52.490;13.326;2023-05-07T01:34:48;10.50;;;9.60;;
29380;SDS011;16364;52.490;13.326;2023-05-07T01:37:13;12.03;;;10.53;;
29380;SDS011;16364;52.490;13.326;2023-05-07T01:39:39;11.27;;;9.10;;
29380;SDS011;16364;52.490;13.326;2023-05-07T01:42:04;9.70;;;8.80;;
29380;SDS011;16364;52.490;13.326;2023-05-07T01:44:30;10.03;;;9.07;;
29380;SDS011;16364;52.490;13.326;2023-05-07T01:46:55;11.40;;;9.70;;
29380;SDS011;16364;52.490;13.326;2023-05-07T01:49:21;13.00;;;10.97;;
29380;SDS011;16364;52.490;13.326;2023-05-07T01:51:47;11.33;;;9.03;;
29380;SDS011;16364;52.490;13.326;2023-05-07T01:54:12;13.73;;;9.57;;
29380;SDS011;16364;52.490;13.326;2023-05-07T01:56:38;11.60;;;10.20;;
29380;SDS011;16364;52.490;13.326;2023-05-07T01:59:03;9.50;;;8.17;;
29380;SDS011;16364;52.490;13.326;2023-05-07T02:01:28;11.50;;;10.30;;
29380;SDS011;16364;52.490;13.326;2023-05-07T02:03:53;10.83;;;8.67;;
29380;SDS011;16364;52.490;13.326;2023-05-07T02:06:19;10.97;;;9.53;;
29380;SDS011;16364;52.490;13.326;2023-05-07T02:08:44;10.37;;;9.43;;
29380;SDS011;16364;52.490;13.326;2023-05-07T02:11:09;10.40;;;9.00;;
29380;SDS011;16364;52.490;13.326;2023-05-07T02:13:35;11.43;;;9.47;;
29380;SDS011;16364;52.490;13.326;2023-05-07T02:16:01;10.77;;;9.67;;
29380;SDS011;16364;52.490;13.326;2023-05-07T02:18:26;10.70;;;8.80;;
29380;SDS011;16364;52.490;13.326;2023-05-07T02:20:51;11.53;;;9.90;;
29380;SDS011;16364;52.490;13.326;2023-05-07T02:23:17;12.77;;;9.83;;
29380;SDS011;16364;52.490;13.326;2023-05-07T02:25:42;11.50;;;9.83;;
29380;SDS011;16364;52.490;13.326;2023-05-07T02:28:07;10.80;;;9.70;;
29380;SDS011;16364;52.490;13.326;2023-05-07T02:30:32;10.03;;;9.00;;
29380;SDS011;16364;52.490;13.326;2023-05-07T02:32:58;10.47;;;9.50;;
29380;SDS011;16364;52.490;13.326;2023-05-07T02:35:24;10.97;;;9.23;;
29380;SDS011;16364;52.490;13.326;2023-05-07T02:37:49;10.57;;;9.27;;
29380;SDS011;16364;52.490;13.326;2023-05-07T02:40:14;11.47;;;9.47;;
29380;SDS011;16364;52.490;13.326;2023-05-07T02:42:40;12.77;;;10.00;;
29380;SDS011;16364;52.490;13.326;2023-05-07T02:45:05;12.33;;;10.53;;
29380;SDS011;16364;52.490;13.326;2023-05-07T02:47:30;10.37;;;8.13;;
29380;SDS011;16364;52.490;13.326;2023-05-07T02:49:56;11.57;;;9.70;;
29380;SDS011;16364;52.490;13.326;2023-05-07T02:52:21;12.23;;;9.90;;
29380;SDS011;16364;52.490;13.326;2023-05-07T02:54:46;9.07;;;8.17;;
29380;SDS011;16364;52.490;13.326;2023-05-07T02:57:12;11.90;;;8.87;;
29380;SDS011;16364;52.490;13.326;2023-05-07T02:59:37;9.63;;;8.77;;
29380;SDS011;16364;52.490;13.326;2023-05-07T03:02:02;9.90;;;8.47;;
29380;SDS011;16364;52.490;13.326;2023-05-07T03:04:27;10.47;;;8.77;;
29380;SDS011;16364;52.490;13.326;2023-05-07T03:06:52;12.83;;;8.90;;
29380;SDS011;16364;52.490;13.326;2023-05-07T03:09:18;10.13;;;8.03;;
29380;SDS011;16364;52.490;13.326;2023-05-07T03:11:43;14.33;;;9.67;;
29380;SDS011;16364;52.490;13.326;2023-05-07T03:14:08;11.10;;;8.90;;
29380;SDS011;16364;52.490;13.326;2023-05-07T03:16:33;9.60;;;8.70;;
29380;SDS011;16364;52.490;13.326;2023-05-07T03:18:59;10.30;;;9.07;;
29380;SDS011;16364;52.490;13.326;2023-05-07T03:21:24;9.97;;;8.97;;
29380;SDS011;16364;52.490;13.326;2023-05-07T03:23:51;12.50;;;9.37;;
29380;SDS011;16364;52.490;13.326;2023-05-07T03:26:16;10.53;;;9.53;;
29380;SDS011;16364;52.490;13.326;2023-05-07T03:28:41;10.20;;;8.20;;
29380;SDS011;16364;52.490;13.326;2023-05-07T03:31:07;9.87;;;8.77;;
29380;SDS011;16364;52.490;13.326;2023-05-07T03:33:35;9.53;;;8.63;;
29380;SDS011;16364;52.490;13.326;2023-05-07T03:36:00;10.00;;;8.87;;
29380;SDS011;16364;52.490;13.326;2023-05-07T03:38:26;9.70;;;8.80;;
29380;SDS011;16364;52.490;13.326;2023-05-07T03:40:51;9.20;;;8.30;;
29380;SDS011;16364;52.490;13.326;2023-05-07T03:43:16;8.30;;;7.40;;
29380;SDS011;16364;52.490;13.326;2023-05-07T03:45:41;9.87;;;8.90;;
29380;SDS011;16364;52.490;13.326;2023-05-07T03:48:07;8.67;;;7.90;;
29380;SDS011;16364;52.490;13.326;2023-05-07T03:50:32;8.57;;;7.63;;
29380;SDS011;16364;52.490;13.326;2023-05-07T03:52:57;9.80;;;8.80;;
29380;SDS011;16364;52.490;13.326;2023-05-07T03:55:22;10.60;;;8.43;;
29380;SDS011;16364;52.490;13.326;2023-05-07T03:57:48;9.43;;;7.60;;
29380;SDS011;16364;52.490;13.326;2023-05-07T04:00:13;9.50;;;7.80;;
29380;SDS011;16364;52.490;13.326;2023-05-07T04:02:39;9.87;;;8.87;;
29380;SDS011;16364;52.490;13.326;2023-05-07T04:05:04;8.77;;;7.97;;
29380;SDS011;16364;52.490;13.326;2023-05-07T04:07:30;11.47;;;8.80;;
29380;SDS011;16364;52.490;13.326;2023-05-07T04:09:55;10.37;;;9.37;;
29380;SDS011;16364;52.490;13.326;2023-05-07T04:12:20;11.17;;;9.33;;
29380;SDS011;16364;52.490;13.326;2023-05-07T04:14:45;8.43;;;7.63;;
29380;SDS011;16364;52.490;13.326;2023-05-07T04:17:11;10.23;;;8.90;;
29380;SDS011;16364;52.490;13.326;2023-05-07T04:19:36;10.17;;;9.17;;
29380;SDS011;16364;52.490;13.326;2023-05-07T04:22:01;9.60;;;8.70;;
29380;SDS011;16364;52.490;13.326;2023-05-07T04:24:26;12.43;;;10.10;;
29380;SDS011;16364;52.490;13.326;2023-05-07T04:26:52;9.20;;;8.43;;
29380;SDS011;16364;52.490;13.326;2023-05-07T04:29:20;9.87;;;8.80;;
29380;SDS011;16364;52.490;13.326;2023-05-07T04:31:46;9.90;;;8.93;;
29380;SDS011;16364;52.490;13.326;2023-05-07T04:34:11;8.90;;;8.10;;
29380;SDS011;16364;52.490;13.326;2023-05-07T04:36:37;8.67;;;7.87;;
29380;SDS011;16364;52.490;13.326;2023-05-07T04:39:03;9.40;;;7.57;;
29380;SDS011;16364;52.490;13.326;2023-05-07T04:41:28;8.27;;;7.47;;
29380;SDS011;16364;52.490;13.326;2023-05-07T04:43:53;11.27;;;7.80;;
29380;SDS011;16364;52.490;13.326;2023-05-07T04:46:18;8.37;;;7.00;;
29380;SDS011;16364;52.490;13.326;2023-05-07T04:48:44;8.00;;;7.27;;
29380;SDS011;16364;52.490;13.326;2023-05-07T04:51:09;8.10;;;7.43;;
29380;SDS011;16364;52.490;13.326;2023-05-07T04:53:34;8.80;;;7.90;;
29380;SDS011;16364;52.490;13.326;2023-05-07T04:56:00;8.13;;;7.37;;
29380;SDS011;16364;52.490;13.326;2023-05-07T04:58:25;8.77;;;7.97;;
29380;SDS011;16364;52.490;13.326;2023-05-07T05:00:50;11.03;;;7.73;;
29380;SDS011;16364;52.490;13.326;2023-05-07T05:03:16;10.30;;;7.03;;
29380;SDS011;16364;52.490;13.326;2023-05-07T05:05:41;7.77;;;6.90;;
29380;SDS011;16364;52.490;13.326;2023-05-07T05:08:06;7.70;;;7.00;;
29380;SDS011;16364;52.490;13.326;2023-05-07T05:10:31;7.33;;;6.73;;
29380;SDS011;16364;52.490;13.326;2023-05-07T05:12:57;6.93;;;6.40;;
29380;SDS011;16364;52.490;13.326;2023-05-07T05:15:22;8.33;;;7.53;;
29380;SDS011;16364;52.490;13.326;2023-05-07T05:17:47;7.27;;;6.63;;
29380;SDS011;16364;52.490;13.326;2023-05-07T05:20:12;8.90;;;6.53;;
29380;SDS011;16364;52.490;13.326;2023-05-07T05:22:38;9.67;;;7.53;;
29380;SDS011;16364;52.490;13.326;2023-05-07T05:25:03;6.93;;;6.33;;
29380;SDS011;16364;52.490;13.326;2023-05-07T05:27:28;8.60;;;6.20;;
29380;SDS011;16364;52.490;13.326;2023-05-07T05:29:54;6.63;;;6.03;;
29380;SDS011;16364;52.490;13.326;2023-05-07T05:32:19;6.37;;;5.77;;
29380;SDS011;16364;52.490;13.326;2023-05-07T05:34:44;7.40;;;5.40;;
29380;SDS011;16364;52.490;13.326;2023-05-07T05:37:09;6.23;;;5.63;;
29380;SDS011;16364;52.490;13.326;2023-05-07T05:39:36;7.20;;;5.87;;
29380;SDS011;16364;52.490;13.326;2023-05-07T05:42:01;7.03;;;6.00;;
29380;SDS011;16364;52.490;13.326;2023-05-07T05:44:26;5.60;;;5.20;;
29380;SDS011;16364;52.490;13.326;2023-05-07T05:46:52;4.90;;;4.57;;
29380;SDS011;16364;52.490;13.326;2023-05-07T05:49:20;6.00;;;5.40;;
29380;SDS011;16364;52.490;13.326;2023-05-07T05:51:45;5.47;;;5.00;;
29380;SDS011;16364;52.490;13.326;2023-05-07T05:54:10;6.00;;;5.30;;
29380;SDS011;16364;52.490;13.326;2023-05-07T05:56:36;5.60;;;5.10;;
29380;SDS011;16364;52.490;13.326;2023-05-07T05:59:01;6.63;;;5.87;;
29380;SDS011;16364;52.490;13.326;2023-05-07T06:01:26;9.70;;;5.97;;
29380;SDS011;16364;52.490;13.326;2023-05-07T06:03:52;6.27;;;5.67;;
29380;SDS011;16364;52.490;13.326;2023-05-07T06:06:17;5.60;;;5.13;;
29380;SDS011;16364;52.490;13.326;2023-05-07T06:08:42;6.17;;;5.57;;
29380;SDS011;16364;52.490;13.326;2023-05-07T06:11:07;4.97;;;4.53;;
29380;SDS011;16364;52.490;13.326;2023-05-07T06:13:32;5.53;;;5.00;;
29380;SDS011;16364;52.490;13.326;2023-05-07T06:15:58;5.70;;;5.30;;
29380;SDS011;16364;52.490;13.326;2023-05-07T06:18:23;6.53;;;5.43;;
29380;SDS011;16364;52.490;13.326;2023-05-07T06:20:48;6.53;;;4.83;;
29380;SDS011;16364;52.490;13.326;2023-05-07T06:23:14;6.73;;;6.03;;
29380;SDS011;16364;52.490;13.326;2023-05-07T06:25:39;6.40;;;5.80;;
29380;SDS011;16364;52.490;13.326;2023-05-07T06:28:05;4.80;;;4.40;;
29380;SDS011;16364;52.490;13.326;2023-05-07T06:30:30;7.13;;;6.53;;
29380;SDS011;16364;52.490;13.326;2023-05-07T06:32:55;6.77;;;6.13;;
29380;SDS011;16364;52.490;13.326;2023-05-07T06:35:21;5.13;;;4.63;;
29380;SDS011;16364;52.490;13.326;2023-05-07T06:37:46;6.67;;;6.07;;
29380;SDS011;16364;52.490;13.326;2023-05-07T06:40:11;6.17;;;5.67;;
29380;SDS011;16364;52.490;13.326;2023-05-07T06:42:36;5.20;;;4.70;;
29380;SDS011;16364;52.490;13.326;2023-05-07T06:45:02;6.93;;;6.20;;
29380;SDS011;16364;52.490;13.326;2023-05-07T06:47:27;5.93;;;4.70;;
29380;SDS011;16364;52.490;13.326;2023-05-07T06:49:53;6.73;;;6.13;;
29380;SDS011;16364;52.490;13.326;2023-05-07T06:52:18;6.10;;;5.10;;
29380;SDS011;16364;52.490;13.326;2023-05-07T06:54:43;6.23;;;5.63;;
29380;SDS011;16364;52.490;13.326;2023-05-07T06:57:08;5.53;;;5.10;;
29380;SDS011;16364;52.490;13.326;2023-05-07T06:59:34;6.40;;;5.90;;
29380;SDS011;16364;52.490;13.326;2023-05-07T07:01:59;8.90;;;6.67;;
29380;SDS011;16364;52.490;13.326;2023-05-07T07:04:24;5.33;;;4.83;;
29380;SDS011;16364;52.490;13.326;2023-05-07T07:06:51;5.97;;;5.40;;
29380;SDS011;16364;52.490;13.326;2023-05-07T07:09:16;4.90;;;4.50;;
29380;SDS011;16364;52.490;13.326;2023-05-07T07:11:42;5.10;;;4.53;;
29380;SDS011;16364;52.490;13.326;2023-05-07T07:14:07;5.30;;;4.90;;
29380;SDS011;16364;52.490;13.326;2023-05-07T07:16:32;6.20;;;5.63;;
29380;SDS011;16364;52.490;13.326;2023-05-07T07:18:57;6.50;;;5.97;;
29380;SDS011;16364;52.490;13.326;2023-05-07T07:21:23;5.57;;;5.17;;
29380;SDS011;16364;52.490;13.326;2023-05-07T07:23:48;5.70;;;5.13;;
29380;SDS011;16364;52.490;13.326;2023-05-07T07:26:13;6.40;;;5.80;;
29380;SDS011;16364;52.490;13.326;2023-05-07T07:28:42;5.30;;;4.80;;
29380;SDS011;16364;52.490;13.326;2023-05-07T07:31:08;4.63;;;4.23;;
29380;SDS011;16364;52.490;13.326;2023-05-07T07:33:33;4.90;;;4.50;;
29380;SDS011;16364;52.490;13.326;2023-05-07T07:35:59;4.63;;;4.23;;
29380;SDS011;16364;52.490;13.326;2023-05-07T07:38:24;5.00;;;4.60;;
29380;SDS011;16364;52.490;13.326;2023-05-07T07:40:49;5.10;;;4.63;;
29380;SDS011;16364;52.490;13.326;2023-05-07T07:43:14;4.10;;;3.80;;
29380;SDS011;16364;52.490;13.326;2023-05-07T07:45:40;4.77;;;4.37;;
29380;SDS011;16364;52.490;13.326;2023-05-07T07:48:05;4.50;;;4.03;;
29380;SDS011;16364;52.490;13.326;2023-05-07T07:50:30;3.90;;;3.60;;
29380;SDS011;16364;52.490;13.326;2023-05-07T07:52:55;3.53;;;3.17;;
29380;SDS011;16364;52.490;13.326;2023-05-07T07:55:22;3.40;;;3.03;;
29380;SDS011;16364;52.490;13.326;2023-05-07T07:57:48;3.23;;;3.00;;
29380;SDS011;16364;52.490;13.326;2023-05-07T08:00:14;3.67;;;3.37;;
29380;SDS011;16364;52.490;13.326;2023-05-07T08:02:39;3.90;;;3.60;;
29380;SDS011;16364;52.490;13.326;2023-05-07T08:05:04;3.70;;;3.40;;
29380;SDS011;16364;52.490;13.326;2023-05-07T08:07:29;3.70;;;3.50;;
29380;SDS011;16364;52.490;13.326;2023-05-07T08:09:55;4.10;;;3.70;;
29380;SDS011;16364;52.490;13.326;2023-05-07T08:12:20;3.07;;;2.87;;
29380;SDS011;16364;52.490;13.326;2023-05-07T08:14:45;3.63;;;3.40;;
29380;SDS011;16364;52.490;13.326;2023-05-07T08:17:11;4.70;;;3.57;;
29380;SDS011;16364;52.490;13.326;2023-05-07T08:19:36;2.90;;;2.70;;
29380;SDS011;16364;52.490;13.326;2023-05-07T08:22:02;4.20;;;3.63;;
29380;SDS011;16364;52.490;13.326;2023-05-07T08:24:27;3.40;;;3.20;;
29380;SDS011;16364;52.490;13.326;2023-05-07T08:26:53;4.17;;;3.80;;
29380;SDS011;16364;52.490;13.326;2023-05-07T08:29:18;3.80;;;3.50;;
29380;SDS011;16364;52.490;13.326;2023-05-07T08:31:43;4.07;;;3.23;;
29380;SDS011;16364;52.490;13.326;2023-05-07T08:34:08;3.50;;;3.20;;
29380;SDS011;16364;52.490;13.326;2023-05-07T08:36:33;3.43;;;3.23;;
29380;SDS011;16364;52.490;13.326;2023-05-07T08:38:59;3.70;;;3.40;;
29380;SDS011;16364;52.490;13.326;2023-05-07T08:41:24;3.03;;;2.83;;
29380;SDS011;16364;52.490;13.326;2023-05-07T08:43:50;2.83;;;2.63;;
29380;SDS011;16364;52.490;13.326;2023-05-07T08:46:19;3.50;;;3.30;;
29380;SDS011;16364;52.490;13.326;2023-05-07T08:48:44;3.67;;;3.37;;
29380;SDS011;16364;52.490;13.326;2023-05-07T08:51:13;3.10;;;2.80;;
29380;SDS011;16364;52.490;13.326;2023-05-07T08:53:40;3.53;;;3.23;;
29380;SDS011;16364;52.490;13.326;2023-05-07T08:56:05;2.60;;;2.40;;
29380;SDS011;16364;52.490;13.326;2023-05-07T08:58:30;2.73;;;2.50;;
29380;SDS011;16364;52.490;13.326;2023-05-07T09:00:56;3.33;;;3.03;;
29380;SDS011;16364;52.490;13.326;2023-05-07T09:03:21;3.03;;;2.83;;
29380;SDS011;16364;52.490;13.326;2023-05-07T09:05:46;2.70;;;2.37;;
29380;SDS011;16364;52.490;13.326;2023-05-07T09:08:14;2.43;;;2.33;;
29380;SDS011;16364;52.490;13.326;2023-05-07T09:10:39;2.73;;;2.53;;
29380;SDS011;16364;52.490;13.326;2023-05-07T09:13:05;2.60;;;2.23;;
29380;SDS011;16364;52.490;13.326;2023-05-07T09:15:30;2.80;;;2.33;;
29380;SDS011;16364;52.490;13.326;2023-05-07T09:17:59;2.70;;;2.50;;
29380;SDS011;16364;52.490;13.326;2023-05-07T09:20:25;2.60;;;2.40;;
29380;SDS011;16364;52.490;13.326;2023-05-07T09:22:51;3.00;;;2.27;;
29380;SDS011;16364;52.490;13.326;2023-05-07T09:25:16;4.03;;;2.20;;
29380;SDS011;16364;52.490;13.326;2023-05-07T09:27:52;4.97;;;2.73;;
29380;SDS011;16364;52.490;13.326;2023-05-07T09:30:17;2.57;;;2.10;;
29380;SDS011;16364;52.490;13.326;2023-05-07T09:32:43;2.70;;;2.30;;
29380;SDS011;16364;52.490;13.326;2023-05-07T09:35:14;2.87;;;2.43;;
29380;SDS011;16364;52.490;13.326;2023-05-07T09:37:40;2.50;;;2.17;;
29380;SDS011;16364;52.490;13.326;2023-05-07T09:40:06;2.50;;;2.23;;
29380;SDS011;16364;52.490;13.326;2023-05-07T09:42:32;2.87;;;2.37;;
29380;SDS011;16364;52.490;13.326;2023-05-07T09:44:58;3.10;;;2.90;;
29380;SDS011;16364;52.490;13.326;2023-05-07T09:47:24;3.30;;;2.93;;
29380;SDS011;16364;52.490;13.326;2023-05-07T09:49:50;2.90;;;2.70;;
29380;SDS011;16364;52.490;13.326;2023-05-07T09:52:17;3.80;;;2.60;;
29380;SDS011;16364;52.490;13.326;2023-05-07T09:54:43;3.20;;;2.90;;
29380;SDS011;16364;52.490;13.326;2023-05-07T09:57:09;2.87;;;2.67;;
29380;SDS011;16364;52.490;13.326;2023-05-07T09:59:35;2.80;;;2.60;;
29380;SDS011;16364;52.490;13.326;2023-05-07T10:02:02;4.67;;;2.00;;
29380;SDS011;16364;52.490;13.326;2023-05-07T10:04:28;3.07;;;2.77;;
29380;SDS011;16364;52.490;13.326;2023-05-07T10:06:53;2.17;;;1.97;;
29380;SDS011;16364;52.490;13.326;2023-05-07T10:09:19;2.47;;;2.27;;
29380;SDS011;16364;52.490;13.326;2023-05-07T10:11:44;1.80;;;1.70;;
29380;SDS011;16364;52.490;13.326;2023-05-07T10:14:10;2.70;;;1.80;;
29380;SDS011;16364;52.490;13.326;2023-05-07T10:16:36;1.77;;;1.67;;
29380;SDS011;16364;52.490;13.326;2023-05-07T10:19:02;2.60;;;1.87;;
29380;SDS011;16364;52.490;13.326;2023-05-07T10:21:28;2.23;;;1.80;;
29380;SDS011;16364;52.490;13.326;2023-05-07T10:23:59;1.80;;;1.70;;
29380;SDS011;16364;52.490;13.326;2023-05-07T10:26:25;1.80;;;1.70;;
29380;SDS011;16364;52.490;13.326;2023-05-07T10:28:57;2.23;;;2.00;;
29380;SDS011;16364;52.490;13.326;2023-05-07T10:33:58;1.83;;;1.73;;
29380;SDS011;16364;52.490;13.326;2023-05-07T10:36:24;1.70;;;1.60;;
29380;SDS011;16364;52.490;13.326;2023-05-07T10:38:50;1.47;;;1.37;;
29380;SDS011;16364;52.490;13.326;2023-05-07T10:41:15;1.60;;;1.50;;
29380;SDS011;16364;52.490;13.326;2023-05-07T10:43:44;1.50;;;1.40;;
29380;SDS011;16364;52.490;13.326;2023-05-07T10:46:10;2.27;;;1.70;;
29380;SDS011;16364;52.490;13.326;2023-05-07T10:49:05;1.83;;;1.30;;
29380;SDS011;16364;52.490;13.326;2023-05-07T10:51:21;1.60;;;1.50;;
29380;SDS011;16364;52.490;13.326;2023-05-07T10:53:47;1.40;;;1.30;;
29380;SDS011;16364;52.490;13.326;2023-05-07T10:58:43;2.23;;;2.00;;
29380;SDS011;16364;52.490;13.326;2023-05-07T11:01:08;1.80;;;1.50;;
29380;SDS011;16364;52.490;13.326;2023-05-07T11:03:36;2.00;;;1.80;;
29380;SDS011;16364;52.490;13.326;2023-05-07T11:06:21;1.50;;;1.40;;
29380;SDS011;16364;52.490;13.326;2023-05-07T11:11:17;2.40;;;1.70;;
29380;SDS011;16364;52.490;13.326;2023-05-07T11:16:24;1.50;;;1.40;;
29380;SDS011;16364;52.490;13.326;2023-05-07T11:18:50;1.50;;;1.40;;
29380;SDS011;16364;52.490;13.326;2023-05-07T11:23:59;3.27;;;2.97;;
29380;SDS011;16364;52.490;13.326;2023-05-07T11:26:25;1.30;;;1.20;;
29380;SDS011;16364;52.490;13.326;2023-05-07T11:28:51;1.60;;;1.50;;
29380;SDS011;16364;52.490;13.326;2023-05-07T11:31:20;1.83;;;1.60;;
29380;SDS011;16364;52.490;13.326;2023-05-07T11:33:45;1.90;;;1.80;;
29380;SDS011;16364;52.490;13.326;2023-05-07T11:36:10;1.80;;;1.70;;
29380;SDS011;16364;52.490;13.326;2023-05-07T11:38:36;1.80;;;1.70;;
29380;SDS011;16364;52.490;13.326;2023-05-07T11:41:02;1.47;;;1.37;;
29380;SDS011;16364;52.490;13.326;2023-05-07T11:43:29;2.00;;;1.57;;
29380;SDS011;16364;52.490;13.326;2023-05-07T11:45:55;3.77;;;1.60;;
29380;SDS011;16364;52.490;13.326;2023-05-07T11:48:29;2.70;;;1.60;;
29380;SDS011;16364;52.490;13.326;2023-05-07T11:53:26;1.53;;;1.43;;
29380;SDS011;16364;52.490;13.326;2023-05-07T11:55:52;2.37;;;1.47;;
29380;SDS011;16364;52.490;13.326;2023-05-07T11:58:20;1.60;;;1.40;;
29380;SDS011;16364;52.490;13.326;2023-05-07T12:00:52;2.63;;;1.90;;
29380;SDS011;16364;52.490;13.326;2023-05-07T12:03:17;2.80;;;1.47;;
29380;SDS011;16364;52.490;13.326;2023-05-07T12:05:43;2.33;;;2.13;;
29380;SDS011;16364;52.490;13.326;2023-05-07T12:08:13;1.70;;;1.60;;
29380;SDS011;16364;52.490;13.326;2023-05-07T12:10:40;1.80;;;1.60;;
29380;SDS011;16364;52.490;13.326;2023-05-07T12:13:13;1.80;;;1.63;;
29380;SDS011;16364;52.490;13.326;2023-05-07T12:15:38;2.00;;;1.40;;
29380;SDS011;16364;52.490;13.326;2023-05-07T12:18:04;1.37;;;1.27;;
29380;SDS011;16364;52.490;13.326;2023-05-07T12:20:30;2.03;;;1.67;;
29380;SDS011;16364;52.490;13.326;2023-05-07T12:22:55;2.33;;;1.30;;
29380;SDS011;16364;52.490;13.326;2023-05-07T12:25:21;1.97;;;1.10;;
29380;SDS011;16364;52.490;13.326;2023-05-07T12:27:51;1.93;;;1.37;;
29380;SDS011;16364;52.490;13.326;2023-05-07T12:30:16;3.33;;;1.63;;
29380;SDS011;16364;52.490;13.326;2023-05-07T12:32:42;1.63;;;1.53;;
29380;SDS011;16364;52.490;13.326;2023-05-07T12:35:09;2.33;;;1.70;;
29380;SDS011;16364;52.490;13.326;2023-05-07T12:37:35;4.97;;;1.40;;
29380;SDS011;16364;52.490;13.326;2023-05-07T12:40:10;1.23;;;1.13;;
29380;SDS011;16364;52.490;13.326;2023-05-07T12:42:36;1.50;;;1.40;;
29380;SDS011;16364;52.490;13.326;2023-05-07T12:45:11;1.50;;;1.40;;
29380;SDS011;16364;52.490;13.326;2023-05-07T12:47:37;2.67;;;1.30;;
29380;SDS011;16364;52.490;13.326;2023-05-07T12:50:04;1.40;;;1.30;;
29380;SDS011;16364;52.490;13.326;2023-05-07T12:52:30;1.57;;;1.30;;
29380;SDS011;16364;52.490;13.326;2023-05-07T12:54:56;1.40;;;1.30;;
29380;SDS011;16364;52.490;13.326;2023-05-07T12:57:21;2.47;;;1.60;;
29380;SDS011;16364;52.490;13.326;2023-05-07T12:59:46;1.40;;;1.30;;
29380;SDS011;16364;52.490;13.326;2023-05-07T13:02:12;3.03;;;1.23;;
29380;SDS011;16364;52.490;13.326;2023-05-07T13:04:37;1.20;;;1.07;;
29380;SDS011;16364;52.490;13.326;2023-05-07T13:07:02;1.30;;;1.20;;
29380;SDS011;16364;52.490;13.326;2023-05-07T13:09:28;1.40;;;1.30;;
29380;SDS011;16364;52.490;13.326;2023-05-07T13:11:56;1.60;;;1.23;;
29380;SDS011;16364;52.490;13.326;2023-05-07T13:14:21;2.30;;;1.20;;
29380;SDS011;16364;52.490;13.326;2023-05-07T13:16:47;2.03;;;1.10;;
29380;SDS011;16364;52.490;13.326;2023-05-07T13:19:12;1.37;;;1.27;;
29380;SDS011;16364;52.490;13.326;2023-05-07T13:21:37;1.40;;;1.30;;
29380;SDS011;16364;52.490;13.326;2023-05-07T13:24:03;1.60;;;1.50;;
29380;SDS011;16364;52.490;13.326;2023-05-07T13:26:29;1.10;;;1.00;;
29380;SDS011;16364;52.490;13.326;2023-05-07T13:28:55;1.33;;;1.07;;
29380;SDS011;16364;52.490;13.326;2023-05-07T13:31:20;1.40;;;1.30;;
29380;SDS011;16364;52.490;13.326;2023-05-07T13:33:46;1.20;;;1.10;;
29380;SDS011;16364;52.490;13.326;2023-05-07T13:36:11;2.40;;;1.87;;
29380;SDS011;16364;52.490;13.326;2023-05-07T13:38:36;18.47;;;10.77;;
29380;SDS011;16364;52.490;13.326;2023-05-07T13:41:01;2.97;;;1.80;;
29380;SDS011;16364;52.490;13.326;2023-05-07T13:43:26;2.90;;;1.30;;
29380;SDS011;16364;52.490;13.326;2023-05-07T13:45:52;1.53;;;1.27;;
29380;SDS011;16364;52.490;13.326;2023-05-07T13:48:17;2.53;;;1.40;;
29380;SDS011;16364;52.490;13.326;2023-05-07T13:50:42;1.23;;;1.13;;
29380;SDS011;16364;52.490;13.326;2023-05-07T13:53:08;1.47;;;1.37;;
29380;SDS011;16364;52.490;13.326;2023-05-07T13:55:33;1.70;;;1.20;;
29380;SDS011;16364;52.490;13.326;2023-05-07T13:57:59;1.47;;;1.13;;
29380;SDS011;16364;52.490;13.326;2023-05-07T14:00:25;14.50;;;7.30;;
29380;SDS011;16364;52.490;13.326;2023-05-07T14:02:51;1.87;;;1.40;;
29380;SDS011;16364;52.490;13.326;2023-05-07T14:05:16;2.83;;;1.20;;
29380;SDS011;16364;52.490;13.326;2023-05-07T14:07:41;1.93;;;1.20;;
29380;SDS011;16364;52.490;13.326;2023-05-07T14:10:07;1.47;;;1.37;;
29380;SDS011;16364;52.490;13.326;2023-05-07T14:12:32;1.40;;;1.30;;
29380;SDS011;16364;52.490;13.326;2023-05-07T14:14:58;2.70;;;1.37;;
29380;SDS011;16364;52.490;13.326;2023-05-07T14:17:23;1.40;;;0.90;;
29380;SDS011;16364;52.490;13.326;2023-05-07T14:19:50;1.17;;;1.07;;
29380;SDS011;16364;52.490;13.326;2023-05-07T14:22:15;8.03;;;5.90;;
29380;SDS011;16364;52.490;13.326;2023-05-07T14:24:40;1.97;;;1.70;;
29380;SDS011;16364;52.490;13.326;2023-05-07T14:27:06;1.90;;;1.40;;
29380;SDS011;16364;52.490;13.326;2023-05-07T14:29:31;1.30;;;1.20;;
29380;SDS011;16364;52.490;13.326;2023-05-07T14:31:56;1.30;;;1.20;;
29380;SDS011;16364;52.490;13.326;2023-05-07T14:34:22;1.60;;;1.30;;
29380;SDS011;16364;52.490;13.326;2023-05-07T14:36:47;1.63;;;1.20;;